Time;durP1;ratioP1;P1;durP2;ratioP2;P2;SDS_P1;SDS_P2;PMS_P1;PMS_P2;Temp;Humidity;BMP_temperature;BMP_pressure;BME280_temperature;BME280_humidity;BME280_pressure;Samples;Min_cycle;Max_cycle;Signal;HPM_P1;HPM_P2
2022/11/04 00:00:32;;;;;;;37.63;30.80;;;;;20.90;99068.00;;;;2085240;28;20217;-71
2022/11/04 00:01:33;;;;;;;38.80;32.20;;;;;20.90;99077.00;;;;2085574;28;20214;-72
2022/11/04 00:02:33;;;;;;;35.83;29.03;;;;;20.90;99070.00;;;;2085318;28;20222;-71
2022/11/04 00:03:33;;;;;;;34.27;29.07;;;;;20.80;99067.00;;;;2085646;28;20794;-72
2022/11/04 00:04:34;;;;;;;38.73;30.80;;;;;20.90;99062.00;;;;2085177;28;20573;-72
2022/11/04 00:05:34;;;;;;;37.43;29.77;;;;;20.80;99071.00;;;;2084273;28;20213;-71
2022/11/04 00:06:34;;;;;;;41.90;32.30;;;;;20.80;99073.00;;;;2083618;28;20319;-71
2022/11/04 00:08:56;;;;;;;35.97;28.83;;;;;20.80;99072.00;;;;2079954;28;20213;-71
2022/11/04 00:09:56;;;;;;;32.90;27.15;;;;;20.80;99070.00;;;;2073899;28;20213;-71
2022/11/04 00:12:25;;;;;;;32.00;26.88;;;;;20.80;99003.00;;;;2084104;28;20304;-71
2022/11/04 00:13:28;;;;;;;33.60;26.40;;;;;20.80;99077.00;;;;2075301;28;20209;-71
2022/11/04 00:14:29;;;;;;;34.17;27.05;;;;;20.80;99079.00;;;;2077346;28;20250;-71
2022/11/04 00:18:07;;;;;;;29.38;23.88;;;;;20.80;99078.00;;;;2084929;28;20682;-71
2022/11/04 00:19:07;;;;;;;31.63;24.77;;;;;20.70;99085.00;;;;2085399;28;20209;-72
2022/11/04 00:29:33;;;;;;;26.73;22.40;;;;;20.80;99083.00;;;;2083457;28;20209;-70
2022/11/04 00:30:36;;;;;;;29.17;22.93;;;;;20.70;99088.00;;;;2084551;28;20229;-71
2022/11/04 00:34:13;;;;;;;24.38;20.35;;;;;20.70;99115.00;;;;2084548;28;20217;-71
2022/11/04 00:35:14;;;;;;;24.60;20.53;;;;;20.70;99098.00;;;;2085228;28;20604;-71
2022/11/04 00:36:14;;;;;;;24.47;20.23;;;;;20.70;99100.00;;;;2085063;28;20565;-71
2022/11/04 00:37:15;;;;;;;23.17;19.63;;;;;20.70;99115.00;;;;2085337;28;20713;-71
2022/11/04 00:38:16;;;;;;;24.33;20.10;;;;;20.70;99098.00;;;;2085954;28;20219;-71
2022/11/04 00:39:16;;;;;;;23.77;20.48;;;;;20.70;99105.00;;;;2085027;28;20229;-71
2022/11/04 00:40:17;;;;;;;24.70;19.90;;;;;20.70;99110.00;;;;2085252;28;20628;-71
2022/11/04 00:41:26;;;;;;;23.20;19.63;;;;;20.70;99111.00;;;;2085193;28;20218;-69
2022/11/04 00:42:26;;;;;;;22.17;18.40;;;;;20.70;99112.00;;;;2093636;23;20315;-75
2022/11/04 00:43:26;;;;;;;27.10;19.80;;;;;20.70;99124.00;;;;2066693;28;20305;-76
2022/11/04 00:44:27;;;;;;;21.83;17.57;;;;;20.70;99124.00;;;;2067674;28;20518;-75
2022/11/04 00:45:27;;;;;;;21.73;18.40;;;;;20.70;99112.00;;;;2084859;28;20241;-75
2022/11/04 00:46:29;;;;;;;23.23;18.40;;;;;20.70;99123.00;;;;2084545;28;20212;-75
2022/11/04 00:47:29;;;;;;;23.15;18.80;;;;;20.70;99112.00;;;;2083525;28;20216;-75
2022/11/04 00:48:29;;;;;;;20.60;17.73;;;;;20.70;99120.00;;;;2083483;28;20703;-75
2022/11/04 00:49:29;;;;;;;20.60;16.73;;;;;20.70;99122.00;;;;2083809;28;20736;-75
2022/11/04 00:50:30;;;;;;;20.50;16.60;;;;;20.70;99121.00;;;;2084135;28;20731;-75
2022/11/04 00:51:30;;;;;;;18.70;16.60;;;;;20.70;99115.00;;;;2084892;28;20480;-75
2022/11/04 00:52:30;;;;;;;20.23;16.23;;;;;20.70;99111.00;;;;2084928;28;20605;-75
2022/11/04 00:53:31;;;;;;;18.87;16.17;;;;;20.70;99128.00;;;;2085330;28;20659;-75
2022/11/04 00:54:31;;;;;;;20.47;16.90;;;;;20.70;99127.00;;;;2084743;28;20592;-75
2022/11/04 00:55:31;;;;;;;24.00;18.63;;;;;20.70;99128.00;;;;2084490;28;20894;-75
2022/11/04 00:56:32;;;;;;;20.67;16.03;;;;;20.70;99129.00;;;;2084390;28;20221;-75
2022/11/04 00:57:32;;;;;;;19.07;15.07;;;;;20.70;99137.00;;;;2084237;28;20217;-75
2022/11/04 00:58:32;;;;;;;21.20;16.93;;;;;20.70;99133.00;;;;2084274;28;20240;-75
2022/11/04 00:59:33;;;;;;;21.17;17.87;;;;;20.70;99131.00;;;;2085077;28;20213;-75
2022/11/04 01:00:33;;;;;;;19.10;16.43;;;;;20.70;99138.00;;;;2085341;28;20214;-75
2022/11/04 01:01:33;;;;;;;17.87;15.43;;;;;20.70;99145.00;;;;2085006;28;20233;-75
2022/11/04 01:02:34;;;;;;;16.37;13.80;;;;;20.70;99141.00;;;;2084972;28;20212;-75
2022/11/04 01:03:34;;;;;;;18.20;14.80;;;;;20.70;99137.00;;;;2084528;28;20240;-75
2022/11/04 01:04:34;;;;;;;16.50;14.03;;;;;20.70;99138.00;;;;2084121;28;20209;-75
2022/11/04 01:05:36;;;;;;;19.87;15.17;;;;;20.70;99136.00;;;;2084394;28;20232;-75
2022/11/04 01:06:36;;;;;;;17.10;14.65;;;;;20.70;99133.00;;;;2084070;28;20236;-75
2022/11/04 01:07:37;;;;;;;17.20;14.40;;;;;20.60;99127.00;;;;2084683;28;20689;-75
2022/11/04 01:08:37;;;;;;;16.83;15.00;;;;;20.60;99141.00;;;;2085081;28;20624;-75
2022/11/04 01:09:37;;;;;;;14.70;12.50;;;;;20.60;99143.00;;;;2085018;28;20250;-75
2022/11/04 01:10:43;;;;;;;16.10;13.73;;;;;20.60;99147.00;;;;2085065;28;20197;-75
2022/11/04 01:11:43;;;;;;;18.27;14.65;;;;;20.60;99149.00;;;;2083386;28;20727;-75
2022/11/04 01:12:44;;;;;;;14.20;12.50;;;;;20.60;99157.00;;;;2083418;28;20216;-75
2022/11/04 01:13:44;;;;;;;14.90;12.30;;;;;20.60;99151.00;;;;2084123;28;20208;-75
2022/11/04 01:14:48;;;;;;;15.57;12.73;;;;;20.60;99156.00;;;;2083905;28;20245;-75
2022/11/04 01:15:48;;;;;;;14.48;12.77;;;;;20.60;99149.00;;;;2084009;28;20220;-75
2022/11/04 01:16:49;;;;;;;14.27;11.97;;;;;20.60;99152.00;;;;2084236;28;20252;-75
2022/11/04 01:17:49;;;;;;;13.17;11.77;;;;;20.60;99155.00;;;;2084134;28;20217;-76
2022/11/04 01:18:50;;;;;;;14.90;12.67;;;;;20.60;99155.00;;;;2084458;28;20231;-75
2022/11/04 01:19:50;;;;;;;14.23;12.57;;;;;20.60;99161.00;;;;2085010;28;20241;-75
2022/11/04 01:20:50;;;;;;;14.67;12.40;;;;;20.60;99175.00;;;;2085142;28;20214;-75
2022/11/04 01:21:51;;;;;;;13.83;12.30;;;;;20.60;99175.00;;;;2084954;28;20222;-75
2022/11/04 01:22:51;;;;;;;15.10;12.40;;;;;20.60;99174.00;;;;2085158;28;20749;-75
2022/11/04 01:23:52;;;;;;;13.93;11.87;;;;;20.60;99173.00;;;;2084097;28;20451;-75
2022/11/04 01:24:52;;;;;;;14.43;11.63;;;;;20.60;99173.00;;;;2084079;28;20243;-75
2022/11/04 01:25:52;;;;;;;14.03;11.70;;;;;20.60;99164.00;;;;2082379;28;20221;-75
2022/11/04 01:26:53;;;;;;;14.63;11.97;;;;;20.60;99183.00;;;;2084064;28;20299;-75
2022/11/04 01:27:54;;;;;;;12.73;11.43;;;;;20.60;99188.00;;;;2083088;28;20573;-76
2022/11/04 01:28:55;;;;;;;13.32;10.45;;;;;20.60;99190.00;;;;2084244;28;20213;-75
2022/11/04 01:29:55;;;;;;;13.70;11.50;;;;;20.60;99184.00;;;;2084254;28;20240;-76
2022/11/04 01:30:55;;;;;;;12.13;10.40;;;;;20.60;99175.00;;;;2084768;28;20223;-75
2022/11/04 01:31:56;;;;;;;13.20;10.93;;;;;20.60;99191.00;;;;2083871;28;20229;-75
2022/11/04 01:32:56;;;;;;;11.23;9.77;;;;;20.60;99174.00;;;;2084212;28;20244;-75
2022/11/04 01:33:57;;;;;;;12.87;9.43;;;;;20.60;99181.00;;;;2084911;28;20217;-76
2022/11/04 01:34:57;;;;;;;12.30;10.23;;;;;20.60;99189.00;;;;2084726;28;20236;-75
2022/11/04 01:36:01;;;;;;;13.07;10.80;;;;;20.60;99198.00;;;;2084289;28;20217;-76
2022/11/04 01:37:01;;;;;;;11.60;10.38;;;;;20.60;99182.00;;;;2084058;28;20216;-75
2022/11/04 01:38:01;;;;;;;10.73;9.40;;;;;20.60;99184.00;;;;2089585;28;20231;-75
2022/11/04 01:39:02;;;;;;;13.47;10.60;;;;;20.60;99187.00;;;;2084796;28;20221;-75
2022/11/04 01:40:03;;;;;;;12.40;9.63;;;;;20.60;99178.00;;;;2083806;28;20213;-72
2022/11/04 01:41:03;;;;;;;13.97;10.27;;;;;20.60;99184.00;;;;2079358;28;20455;-75
2022/11/04 01:42:04;;;;;;;10.93;9.73;;;;;20.60;99182.00;;;;2070962;28;20305;-75
2022/11/04 01:43:14;;;;;;;11.60;8.60;;;;;20.60;99202.00;;;;2082519;28;20292;-75
2022/11/04 01:44:42;;;;;;;10.23;9.05;;;;;20.60;99197.00;;;;2084094;28;20210;-75
2022/11/04 01:45:48;;;;;;;10.20;9.10;;;;;20.60;99195.00;;;;2083864;28;20213;-75
2022/11/04 01:46:49;;;;;;;10.25;8.80;;;;;20.60;99207.00;;;;2084553;28;20248;-75
2022/11/04 01:47:58;;;;;;;11.88;9.77;;;;;20.60;99197.00;;;;2084128;28;20784;-75
2022/11/04 01:49:05;;;;;;;10.30;9.10;;;;;20.60;99185.00;;;;2077110;28;20213;-75
2022/11/04 01:50:09;;;;;;;11.43;9.57;;;;;20.50;99189.00;;;;2083037;28;20211;-75
2022/11/04 01:51:09;;;;;;;10.38;8.50;;;;;20.60;99156.00;;;;2083240;28;20658;-75
2022/11/04 01:52:12;;;;;;;10.70;9.03;;;;;20.60;99201.00;;;;2075249;28;20250;-76
2022/11/04 01:53:17;;;;;;;10.63;9.18;;;;;20.60;99197.00;;;;2084091;28;20209;-75
2022/11/04 01:54:18;;;;;;;12.82;10.43;;;;;20.50;99197.00;;;;2075603;28;20213;-75
2022/11/04 01:55:21;;;;;;;10.20;8.17;;;;;20.50;99201.00;;;;2067513;28;20216;-75
2022/11/04 01:56:21;;;;;;;10.32;9.23;;;;;20.50;99167.00;;;;2074779;28;20720;-75
2022/11/04 01:57:32;;;;;;;9.80;8.27;;;;;20.50;99164.00;;;;2082972;28;20237;-75
2022/11/04 01:58:33;;;;;;;10.20;8.60;;;;;20.50;99211.00;;;;2082763;28;20692;-75
2022/11/04 01:59:35;;;;;;;8.77;7.43;;;;;20.50;99201.00;;;;2082758;28;20216;-75
2022/11/04 02:00:39;;;;;;;9.00;8.10;;;;;20.50;99211.00;;;;2083035;28;20247;-75
2022/11/04 02:01:39;;;;;;;8.65;7.40;;;;;20.50;99201.00;;;;2082810;28;20261;-75
2022/11/04 02:02:45;;;;;;;9.80;7.97;;;;;20.50;99183.00;;;;2083740;28;20288;-75
2022/11/04 02:03:55;;;;;;;8.48;7.50;;;;;20.60;99211.00;;;;2084021;28;20545;-75
2022/11/04 02:04:55;;;;;;;10.13;8.45;;;;;20.50;99223.00;;;;2076466;28;21084;-75
2022/11/04 02:05:55;;;;;;;8.27;6.60;;;;;20.50;99211.00;;;;2083052;28;20232;-75
2022/11/04 02:07:01;;;;;;;10.90;8.83;;;;;20.50;99188.00;;;;2083924;28;20229;-75
2022/11/04 02:08:02;;;;;;;9.23;7.72;;;;;20.50;99207.00;;;;2075046;28;20295;-75
2022/11/04 02:09:03;;;;;;;8.40;7.53;;;;;20.50;99216.00;;;;2067459;28;20247;-75
2022/11/04 02:10:03;;;;;;;7.60;6.60;;;;;20.50;99215.00;;;;2082941;28;20217;-75
2022/11/04 02:11:04;;;;;;;8.20;7.40;;;;;20.50;99207.00;;;;2083950;28;20271;-75
2022/11/04 02:13:23;;;;;;;7.35;6.57;;;;;20.50;99216.00;;;;2082556;28;20216;-75
2022/11/04 02:14:24;;;;;;;8.33;7.47;;;;;20.50;99206.00;;;;2074739;28;20916;-75
2022/11/04 02:15:43;;;;;;;7.70;7.00;;;;;20.50;99214.00;;;;2066718;28;20211;-75
2022/11/04 02:16:43;;;;;;;9.52;7.40;;;;;20.50;99196.00;;;;2083072;28;20304;-75
2022/11/04 02:18:11;;;;;;;8.37;7.13;;;;;20.50;99212.00;;;;2074875;28;20772;-75
2022/11/04 02:19:42;;;;;;;8.98;6.55;;;;;20.50;99213.00;;;;2078782;28;20296;-75
2022/11/04 02:21:00;;;;;;;8.45;6.63;;;;;20.50;99207.00;;;;2083488;28;20288;-75
2022/11/04 02:22:22;;;;;;;7.03;6.30;;;;;20.50;99215.00;;;;2083299;28;20229;-75
2022/11/04 02:23:31;;;;;;;8.57;6.10;;;;;20.50;99220.00;;;;2083486;28;20216;-75
2022/11/04 02:24:37;;;;;;;8.15;6.20;;;;;20.50;99214.00;;;;2082865;28;20682;-75
2022/11/04 02:25:52;;;;;;;6.72;5.75;;;;;20.50;99212.00;;;;2083210;28;20596;-75
2022/11/04 02:27:22;;;;;;;8.80;6.00;;;;;20.50;99210.00;;;;2084030;28;20236;-75
2022/11/04 02:28:50;;;;;;;6.80;5.85;;;;;20.50;99213.00;;;;2079568;28;20220;-76
2022/11/04 02:30:15;;;;;;;7.13;6.10;;;;;20.50;99205.00;;;;2076436;28;20692;-75
2022/11/04 02:31:22;;;;;;;7.55;5.50;;;;;20.50;99205.00;;;;2074999;28;20218;-75
2022/11/04 02:32:33;;;;;;;6.50;5.35;;;;;20.50;99194.00;;;;2076621;28;20728;-75
2022/11/04 02:33:45;;;;;;;6.30;5.03;;;;;20.40;99197.00;;;;2076862;28;20788;-75
2022/11/04 02:35:03;;;;;;;6.70;6.00;;;;;20.40;99203.00;;;;2073971;28;20220;-75
2022/11/04 02:36:26;;;;;;;7.43;5.03;;;;;20.50;99195.00;;;;2077692;28;20244;-75
2022/11/04 02:37:47;;;;;;;7.20;5.45;;;;;20.40;99204.00;;;;2083409;28;20292;-75
2022/11/04 02:38:54;;;;;;;6.50;5.20;;;;;20.50;99209.00;;;;2079959;28;20231;-75
2022/11/04 02:40:33;;;;;;;6.25;4.95;;;;;20.50;99200.00;;;;2078410;28;20220;-75
2022/11/04 02:41:44;;;;;;;6.43;5.28;;;;;20.50;99202.00;;;;2082850;28;20215;-75
2022/11/04 02:42:55;;;;;;;7.28;5.10;;;;;20.50;99205.00;;;;2077163;28;20253;-74
2022/11/04 02:44:19;;;;;;;5.88;4.95;;;;;20.40;99204.00;;;;2076253;28;20210;-75
2022/11/04 02:45:54;;;;;;;6.53;5.13;;;;;20.40;99206.00;;;;2083329;28;20607;-75
2022/11/04 02:47:06;;;;;;;6.75;5.03;;;;;20.40;99183.00;;;;2067439;28;20241;-75
2022/11/04 02:48:10;;;;;;;4.82;3.92;;;;;20.40;99204.00;;;;2064539;28;20217;-75
2022/11/04 02:49:12;;;;;;;5.88;4.75;;;;;20.40;99204.00;;;;2068488;28;20222;-75
2022/11/04 02:50:17;;;;;;;5.75;5.15;;;;;20.40;99199.00;;;;2081439;28;20264;-72
2022/11/04 02:52:15;;;;;;;5.63;4.63;;;;;20.40;99199.00;;;;2084326;28;20700;-74
2022/11/04 02:53:32;;;;;;;5.57;4.28;;;;;20.40;99196.00;;;;2059419;28;20210;-75
2022/11/04 02:54:41;;;;;;;6.05;4.78;;;;;20.40;99197.00;;;;2052161;28;20289;-75
2022/11/04 02:55:44;;;;;;;5.05;4.55;;;;;20.40;99199.00;;;;2043688;28;20217;-75
2022/11/04 02:56:46;;;;;;;5.05;4.55;;;;;20.40;99184.00;;;;2051408;28;20212;-74
2022/11/04 02:57:47;;;;;;;5.15;4.03;;;;;20.40;99176.00;;;;2066343;28;20218;-75
2022/11/04 02:58:53;;;;;;;5.40;4.07;;;;;20.40;99203.00;;;;2072056;28;20604;-75
2022/11/04 02:59:53;;;;;;;5.65;4.72;;;;;20.40;99195.00;;;;2075348;28;20215;-74
2022/11/04 03:00:54;;;;;;;6.53;4.50;;;;;20.40;99187.00;;;;2082571;28;20221;-75
2022/11/04 03:01:54;;;;;;;4.93;3.80;;;;;20.40;99201.00;;;;2074391;28;20339;-75
2022/11/04 03:03:08;;;;;;;5.03;4.20;;;;;20.40;99199.00;;;;2075313;28;20218;-75
2022/11/04 03:04:12;;;;;;;4.65;3.95;;;;;20.40;99206.00;;;;2083601;28;20738;-74
2022/11/04 03:05:14;;;;;;;4.75;4.20;;;;;20.40;99102.00;;;;2076508;28;20727;-75
2022/11/04 03:06:16;;;;;;;4.47;3.97;;;;;20.40;99180.00;;;;2075172;28;20236;-75
2022/11/04 03:07:17;;;;;;;4.97;4.13;;;;;20.40;99211.00;;;;2058669;28;20294;-74
2022/11/04 03:08:24;;;;;;;5.18;4.68;;;;;20.40;99197.00;;;;2066714;28;20264;-75
2022/11/04 03:09:25;;;;;;;5.05;4.43;;;;;20.40;99179.00;;;;2059038;28;20211;-75
2022/11/04 03:10:30;;;;;;;5.80;4.17;;;;;20.40;99211.00;;;;2053656;28;20220;-75
2022/11/04 03:11:30;;;;;;;5.68;4.07;;;;;20.40;99204.00;;;;2071871;28;20359;-75
2022/11/04 03:12:37;;;;;;;5.73;3.87;;;;;20.40;99206.00;;;;2067088;28;20231;-75
2022/11/04 03:13:43;;;;;;;4.95;3.90;;;;;20.40;99210.00;;;;2068788;28;20570;-75
2022/11/04 03:14:47;;;;;;;4.97;3.40;;;;;20.40;99206.00;;;;2082236;28;20285;-75
2022/11/04 03:15:54;;;;;;;3.92;3.42;;;;;20.40;99203.00;;;;2073682;28;20217;-75
2022/11/04 03:17:00;;;;;;;4.45;3.45;;;;;20.40;99190.00;;;;2068371;28;20214;-75
2022/11/04 03:18:29;;;;;;;4.93;4.32;;;;;20.40;99204.00;;;;2067019;28;20214;-75
2022/11/04 03:19:40;;;;;;;4.03;3.17;;;;;20.40;99202.00;;;;2069869;28;20217;-75
2022/11/04 03:20:40;;;;;;;3.83;3.10;;;;;20.40;99211.00;;;;2075153;28;20300;-75
2022/11/04 03:21:46;;;;;;;5.90;4.07;;;;;20.40;99207.00;;;;2068027;28;20229;-74
2022/11/04 03:22:47;;;;;;;5.00;3.70;;;;;20.40;99211.00;;;;2075402;28;20708;-74
2022/11/04 03:23:47;;;;;;;3.53;3.23;;;;;20.40;99205.00;;;;2074960;28;20209;-74
2022/11/04 03:24:48;;;;;;;3.63;2.90;;;;;20.40;99213.00;;;;2081792;28;20640;-72
2022/11/04 03:25:50;;;;;;;4.50;3.80;;;;;20.40;99216.00;;;;2083377;28;20577;-73
2022/11/04 03:26:59;;;;;;;3.78;3.30;;;;;20.40;99211.00;;;;2074129;28;20704;-74
2022/11/04 03:28:04;;;;;;;4.88;3.20;;;;;20.40;99212.00;;;;2069692;28;20308;-74
2022/11/04 03:29:16;;;;;;;4.00;3.30;;;;;20.40;99208.00;;;;2059081;28;20225;-74
2022/11/04 03:30:18;;;;;;;3.90;3.35;;;;;20.40;99207.00;;;;2066858;28;20227;-74
2022/11/04 03:31:46;;;;;;;5.57;4.13;;;;;20.40;99211.00;;;;2065951;28;20206;-74
2022/11/04 03:33:22;;;;;;;4.07;2.72;;;;;20.40;99207.00;;;;2075762;28;20254;-75
2022/11/04 03:34:22;;;;;;;5.50;3.30;;;;;20.40;99201.00;;;;2078570;28;20221;-75
2022/11/04 03:35:23;;;;;;;3.57;3.10;;;;;20.40;99210.00;;;;2083204;28;20318;-75
2022/11/04 03:36:23;;;;;;;3.90;3.00;;;;;20.40;99079.00;;;;2082348;28;20240;-75
2022/11/04 03:37:23;;;;;;;3.83;3.20;;;;;20.40;99210.00;;;;2075374;28;20240;-75
2022/11/04 03:38:24;;;;;;;3.70;2.80;;;;;20.30;99208.00;;;;2075407;28;20329;-74
2022/11/04 03:39:24;;;;;;;3.73;2.80;;;;;20.40;99210.00;;;;2082689;28;20224;-75
2022/11/04 03:40:25;;;;;;;4.13;2.93;;;;;20.40;99207.00;;;;2084241;28;20712;-75
2022/11/04 03:41:37;;;;;;;5.60;3.27;;;;;20.40;99220.00;;;;2082162;28;20774;-75
2022/11/04 03:42:42;;;;;;;4.00;2.80;;;;;20.40;99173.00;;;;2066997;28;20221;-75
2022/11/04 03:43:42;;;;;;;4.78;3.33;;;;;20.30;99198.00;;;;2066934;28;20214;-75
2022/11/04 03:44:43;;;;;;;3.10;2.80;;;;;20.30;99238.00;;;;2082054;28;20217;-75
2022/11/04 03:45:43;;;;;;;3.80;2.67;;;;;20.40;99219.00;;;;2073720;28;20252;-75
2022/11/04 03:46:44;;;;;;;3.27;2.67;;;;;20.30;99220.00;;;;2058023;28;20219;-75
2022/11/04 03:47:44;;;;;;;3.67;3.10;;;;;20.30;99219.00;;;;2073877;28;20220;-75
2022/11/04 03:48:46;;;;;;;2.73;2.37;;;;;20.40;99219.00;;;;2082351;28;20209;-75
2022/11/04 03:49:47;;;;;;;3.50;2.60;;;;;20.30;99215.00;;;;2066925;28;20661;-75
2022/11/04 03:50:47;;;;;;;3.00;2.70;;;;;20.30;99226.00;;;;2066728;28;20222;-75
2022/11/04 03:51:49;;;;;;;2.77;2.30;;;;;20.30;99230.00;;;;2082728;28;20255;-75
2022/11/04 03:52:49;;;;;;;4.00;2.38;;;;;20.30;99231.00;;;;2083357;28;20625;-75
2022/11/04 03:53:49;;;;;;;3.17;2.47;;;;;20.30;99169.00;;;;2082342;28;20219;-75
2022/11/04 03:54:50;;;;;;;3.07;2.73;;;;;20.30;99229.00;;;;2065736;28;20225;-75
2022/11/04 03:56:00;;;;;;;2.97;2.30;;;;;20.30;99239.00;;;;2065742;28;20225;-75
2022/11/04 03:57:22;;;;;;;2.90;2.15;;;;;20.30;99235.00;;;;2074800;28;20221;-75
2022/11/04 03:58:43;;;;;;;2.85;2.10;;;;;20.30;99243.00;;;;2082437;28;20219;-75
2022/11/04 03:59:48;;;;;;;3.38;2.35;;;;;20.40;99243.00;;;;2076306;28;20312;-75
2022/11/04 04:00:53;;;;;;;2.83;2.08;;;;;20.30;99242.00;;;;2068008;28;20219;-75
2022/11/04 04:01:59;;;;;;;3.42;2.63;;;;;20.30;99253.00;;;;2085630;28;20275;-75
2022/11/04 04:03:04;;;;;;;3.58;2.40;;;;;20.30;99248.00;;;;2081948;28;20231;-74
2022/11/04 04:04:11;;;;;;;3.22;2.35;;;;;20.30;99254.00;;;;2082201;28;20300;-75
2022/11/04 04:05:24;;;;;;;4.15;2.28;;;;;20.30;99242.00;;;;2082662;28;20210;-75
2022/11/04 04:06:30;;;;;;;3.60;2.97;;;;;20.30;99250.00;;;;2082389;28;20228;-75
2022/11/04 04:07:40;;;;;;;5.18;2.20;;;;;20.30;99246.00;;;;2066346;28;20292;-75
2022/11/04 04:08:45;;;;;;;3.22;2.50;;;;;20.30;99239.00;;;;2069100;28;20221;-75
2022/11/04 04:10:37;;;;;;;2.95;2.05;;;;;20.30;99233.00;;;;2066300;28;20234;-75
2022/11/04 04:12:01;;;;;;;3.65;2.53;;;;;20.30;99226.00;;;;2083998;28;20226;-75
2022/11/04 04:13:03;;;;;;;3.20;2.10;;;;;20.30;99247.00;;;;2081598;28;20869;-75
2022/11/04 04:14:38;;;;;;;3.00;2.20;;;;;20.30;99239.00;;;;2082007;28;20213;-75
2022/11/04 04:15:48;;;;;;;2.92;1.90;;;;;20.30;99250.00;;;;2079071;28;20318;-75
2022/11/04 04:16:48;;;;;;;4.18;2.25;;;;;20.30;99229.00;;;;2064260;28;20720;-75
2022/11/04 04:17:51;;;;;;;4.10;2.53;;;;;20.30;99237.00;;;;2062337;28;20230;-75
2022/11/04 04:18:54;;;;;;;2.75;2.00;;;;;20.30;99239.00;;;;2066238;28;20215;-75
2022/11/04 04:20:05;;;;;;;2.65;1.83;;;;;20.30;99242.00;;;;2074342;28;20668;-75
2022/11/04 04:21:07;;;;;;;3.33;2.03;;;;;20.30;99242.00;;;;2081937;28;20217;-75
2022/11/04 04:22:11;;;;;;;3.20;2.20;;;;;20.30;99240.00;;;;2076956;28;20221;-75
2022/11/04 04:27:31;;;;;;;3.15;1.90;;;;;20.30;99240.00;;;;2080676;28;20255;-75
2022/11/04 04:28:32;;;;;;;2.88;1.70;;;;;20.30;99229.00;;;;2086803;28;20221;-75
2022/11/04 04:29:32;;;;;;;3.03;2.03;;;;;20.30;99231.00;;;;2083954;28;20733;-75
2022/11/04 04:30:32;;;;;;;2.20;1.90;;;;;20.30;99237.00;;;;2083961;28;20683;-75
2022/11/04 04:31:48;;;;;;;3.17;1.93;;;;;20.30;99237.00;;;;2083862;28;20210;-74
2022/11/04 04:32:49;;;;;;;3.80;2.05;;;;;20.30;99231.00;;;;2076696;28;20247;-75
2022/11/04 04:33:50;;;;;;;2.42;1.63;;;;;20.30;99237.00;;;;2078096;28;20310;-75
2022/11/04 04:35:40;;;;;;;2.70;1.87;;;;;20.30;99242.00;;;;2067539;28;20661;-75
2022/11/04 04:36:10;;;;;;;3.83;2.17;;;;;20.30;99240.00;;;;2081066;28;20221;-75
2022/11/04 04:37:20;;;;;;;2.63;1.80;;;;;20.30;99233.00;;;;2069865;28;21126;-75
2022/11/04 04:45:12;;;;;;;2.15;1.70;;;;;20.30;99240.00;;;;2084157;28;20321;-75
2022/11/04 04:46:12;;;;;;;3.10;1.67;;;;;20.30;99251.00;;;;2075455;28;20208;-75
2022/11/04 04:47:18;;;;;;;2.50;1.60;;;;;20.30;99248.00;;;;2075648;28;20218;-75
2022/11/04 04:48:19;;;;;;;3.13;2.13;;;;;20.30;99246.00;;;;2083749;28;20781;-75
2022/11/04 04:49:19;;;;;;;2.73;1.70;;;;;20.30;99246.00;;;;2083741;28;20244;-75
2022/11/04 04:50:19;;;;;;;4.97;1.80;;;;;20.30;99249.00;;;;2084459;28;20227;-75
2022/11/04 04:51:20;;;;;;;2.53;1.83;;;;;20.20;99258.00;;;;2083833;28;20228;-75
2022/11/04 04:52:21;;;;;;;3.07;1.87;;;;;20.20;99249.00;;;;2075930;28;20284;-75
2022/11/04 04:53:22;;;;;;;3.03;1.70;;;;;20.30;99251.00;;;;2083322;28;20221;-75
2022/11/04 04:54:22;;;;;;;1.73;1.20;;;;;20.20;99254.00;;;;2085225;28;20213;-75
2022/11/04 04:55:22;;;;;;;2.90;1.70;;;;;20.20;99264.00;;;;2084684;28;20482;-75
2022/11/04 04:56:23;;;;;;;1.90;1.43;;;;;20.20;99254.00;;;;2084416;28;20270;-75
2022/11/04 04:57:23;;;;;;;2.30;1.70;;;;;20.20;99239.00;;;;2084421;28;20213;-75
2022/11/04 04:58:23;;;;;;;1.90;1.50;;;;;20.20;99256.00;;;;2083430;28;20345;-75
2022/11/04 04:59:24;;;;;;;1.87;1.50;;;;;20.30;99260.00;;;;2083584;28;20209;-75
2022/11/04 05:00:24;;;;;;;2.30;1.50;;;;;20.20;99264.00;;;;2085031;28;20214;-75
2022/11/04 05:01:24;;;;;;;2.70;1.40;;;;;20.20;99240.00;;;;2085125;28;20224;-75
2022/11/04 05:02:25;;;;;;;2.50;1.40;;;;;20.20;99257.00;;;;2083895;28;20221;-75
2022/11/04 05:03:25;;;;;;;4.07;1.60;;;;;20.20;99260.00;;;;2086319;28;20287;-75
2022/11/04 05:04:25;;;;;;;2.30;1.40;;;;;20.20;99131.00;;;;2089750;28;20220;-75
2022/11/04 05:05:26;;;;;;;2.20;1.40;;;;;20.20;99268.00;;;;2084549;28;20217;-75
2022/11/04 05:06:26;;;;;;;2.50;1.20;;;;;20.20;99289.00;;;;2086179;28;20580;-75
2022/11/04 05:07:26;;;;;;;2.57;1.40;;;;;20.20;99263.00;;;;2088864;28;20243;-75
2022/11/04 05:08:26;;;;;;;2.27;1.53;;;;;20.20;99264.00;;;;2084395;28;20637;-75
2022/11/04 05:09:27;;;;;;;2.27;1.30;;;;;20.30;99268.00;;;;2083636;28;20243;-75
2022/11/04 05:10:27;;;;;;;2.97;1.57;;;;;20.30;99274.00;;;;2083031;28;20668;-75
2022/11/04 05:11:27;;;;;;;2.60;1.30;;;;;20.20;99273.00;;;;2082955;28;20310;-75
2022/11/04 05:13:24;;;;;;;3.93;2.03;;;;;20.30;99267.00;;;;2083399;28;20233;-75
2022/11/04 05:13:48;;;;;;;2.08;1.17;;;;;20.20;99280.00;;;;2083829;28;20244;-75
2022/11/04 05:14:48;;;;;;;1.67;1.40;;;;;20.20;99276.00;;;;2084745;28;20229;-75
2022/11/04 05:15:49;;;;;;;2.60;1.37;;;;;20.20;99270.00;;;;2084892;28;20213;-75
2022/11/04 05:16:49;;;;;;;2.47;1.40;;;;;20.20;99275.00;;;;2085172;28;20685;-75
2022/11/04 05:17:56;;;;;;;2.87;1.50;;;;;20.20;99283.00;;;;2085000;28;20205;-75
2022/11/04 05:18:57;;;;;;;2.13;1.60;;;;;20.20;99265.00;;;;2084284;28;20300;-75
2022/11/04 05:19:57;;;;;;;2.00;1.40;;;;;20.20;99271.00;;;;2078199;28;20220;-75
2022/11/04 05:20:57;;;;;;;2.50;1.87;;;;;20.20;99278.00;;;;2067903;28;20230;-75
2022/11/04 05:22:00;;;;;;;2.20;1.30;;;;;20.20;99272.00;;;;2083808;28;20583;-75
2022/11/04 05:23:00;;;;;;;3.10;1.42;;;;;20.20;99273.00;;;;2084209;28;20217;-75
2022/11/04 05:24:00;;;;;;;1.93;1.30;;;;;20.20;99270.00;;;;2084300;28;20691;-75
2022/11/04 05:25:01;;;;;;;2.13;1.30;;;;;20.20;99268.00;;;;2084374;28;20723;-75
2022/11/04 05:26:01;;;;;;;1.60;1.40;;;;;20.20;99275.00;;;;2084670;28;20209;-75
2022/11/04 05:27:01;;;;;;;2.20;1.70;;;;;20.20;99278.00;;;;2084813;28;20248;-75
2022/11/04 05:28:02;;;;;;;2.00;1.43;;;;;20.20;99281.00;;;;2084941;28;20267;-75
2022/11/04 05:29:02;;;;;;;2.53;1.37;;;;;20.20;99280.00;;;;2081900;28;20218;-75
2022/11/04 05:30:03;;;;;;;2.57;1.50;;;;;20.20;99285.00;;;;2082488;28;20217;-75
2022/11/04 05:31:04;;;;;;;2.90;1.20;;;;;20.20;99281.00;;;;2084187;28;20224;-75
2022/11/04 05:32:04;;;;;;;1.90;1.30;;;;;20.20;99286.00;;;;2083579;28;20229;-75
2022/11/04 05:33:05;;;;;;;3.13;1.40;;;;;20.20;99304.00;;;;2082775;28;20282;-75
2022/11/04 05:34:05;;;;;;;2.10;1.40;;;;;20.20;99286.00;;;;2084633;28;20296;-75
2022/11/04 05:35:06;;;;;;;1.97;0.97;;;;;20.20;99292.00;;;;2081093;28;20226;-75
2022/11/04 05:36:10;;;;;;;2.17;1.40;;;;;20.20;99291.00;;;;2084599;28;20217;-75
2022/11/04 05:37:11;;;;;;;2.97;1.45;;;;;20.20;99287.00;;;;2085192;28;20208;-74
2022/11/04 05:38:11;;;;;;;3.10;1.70;;;;;20.20;99297.00;;;;2075338;28;20218;-75
2022/11/04 05:39:12;;;;;;;1.80;1.20;;;;;20.20;99291.00;;;;2083395;28;20367;-75
2022/11/04 05:40:12;;;;;;;2.70;1.40;;;;;20.20;99305.00;;;;2083305;28;20213;-75
2022/11/04 05:41:24;;;;;;;2.17;1.33;;;;;20.20;99307.00;;;;2084034;28;20661;-75
2022/11/04 05:42:24;;;;;;;1.73;1.27;;;;;20.20;99299.00;;;;2083489;28;20216;-75
2022/11/04 05:43:25;;;;;;;2.47;1.20;;;;;20.20;99297.00;;;;2084301;28;21222;-75
2022/11/04 05:44:25;;;;;;;1.83;1.00;;;;;20.20;99304.00;;;;2084140;28;20631;-75
2022/11/04 05:45:26;;;;;;;2.10;1.40;;;;;20.20;99304.00;;;;2084999;28;20878;-75
2022/11/04 05:46:26;;;;;;;3.13;1.07;;;;;20.20;99308.00;;;;2083331;28;20267;-75
2022/11/04 05:47:27;;;;;;;2.07;1.23;;;;;20.20;99300.00;;;;2084103;28;20458;-75
2022/11/04 05:48:27;;;;;;;1.70;1.10;;;;;20.20;99307.00;;;;2084667;28;20253;-75
2022/11/04 05:49:27;;;;;;;2.50;1.40;;;;;20.20;99306.00;;;;2084470;28;20216;-75
2022/11/04 05:50:28;;;;;;;2.53;1.20;;;;;20.20;99306.00;;;;2084096;28;20228;-75